< < Back
Terminal Aerodrome Forecast


Current Version              Previous Versions:   1  2  3  4  5  6  7  8  9  

Terminal Aerodrome Forecast

472
FTUS42 KTAE 240100 AAB
TAFVLD
TAF AMD
KVLD 240136Z 2402/2424 00000KT 3SM RA BR SCT015 BKN040 OVC050
      TEMPO 2402/2403 VRB15G25KT 1SM +TSRA BKN007 OVC030CB
     FM240300 18010KT 6SM BR OVC020
     FM240800 19010KT 5SM BR OVC004
     FM241600 23010G15KT P6SM BKN020
     FM241800 26010KT P6SM BKN030 OVC060=



Latest METAR

945
SAUS70 KWBC 241200 RRP
MTRVLD
METAR KVLD 241153Z 19009G16KT 9SM BKN006 OVC010 23/22 A2985 RMK AO2
RAB02E11 SLP115 P0000 60000 70060 T02280217 10228 20183 53007
$


USA.gov is the U.S. government's official web portal to all federal, state and local government web resources and services.